sensor_id;sensor_type;location;lat;lon;timestamp;P1;durP1;ratioP1;P2;durP2;ratioP2
6928;SDS011;3504;52.616;13.238;2024-01-16T00:02:59;2.27;;;2.07;;
6928;SDS011;3504;52.616;13.238;2024-01-16T00:07:59;3.00;;;2.13;;
6928;SDS011;3504;52.616;13.238;2024-01-16T00:13:00;6.00;;;2.33;;
6928;SDS011;3504;52.616;13.238;2024-01-16T00:18:00;6.20;;;2.53;;
6928;SDS011;3504;52.616;13.238;2024-01-16T00:23:01;3.73;;;2.07;;
6928;SDS011;3504;52.616;13.238;2024-01-16T00:28:01;6.30;;;3.43;;
6928;SDS011;3504;52.616;13.238;2024-01-16T00:33:02;3.20;;;2.43;;
6928;SDS011;3504;52.616;13.238;2024-01-16T00:38:03;4.93;;;2.00;;
6928;SDS011;3504;52.616;13.238;2024-01-16T00:43:04;2.70;;;1.70;;
6928;SDS011;3504;52.616;13.238;2024-01-16T00:48:04;4.23;;;2.27;;
6928;SDS011;3504;52.616;13.238;2024-01-16T00:53:06;4.53;;;2.27;;
6928;SDS011;3504;52.616;13.238;2024-01-16T00:58:06;4.43;;;2.00;;
6928;SDS011;3504;52.616;13.238;2024-01-16T01:03:07;3.87;;;1.70;;
6928;SDS011;3504;52.616;13.238;2024-01-16T01:08:07;4.13;;;1.90;;
6928;SDS011;3504;52.616;13.238;2024-01-16T01:13:08;4.27;;;2.07;;
6928;SDS011;3504;52.616;13.238;2024-01-16T01:18:09;3.53;;;1.93;;
6928;SDS011;3504;52.616;13.238;2024-01-16T01:23:09;3.97;;;1.70;;
6928;SDS011;3504;52.616;13.238;2024-01-16T01:28:11;1.93;;;1.60;;
6928;SDS011;3504;52.616;13.238;2024-01-16T01:33:11;3.80;;;1.60;;
6928;SDS011;3504;52.616;13.238;2024-01-16T01:38:12;3.10;;;1.90;;
6928;SDS011;3504;52.616;13.238;2024-01-16T01:43:19;2.80;;;1.63;;
6928;SDS011;3504;52.616;13.238;2024-01-16T01:48:20;3.73;;;1.80;;
6928;SDS011;3504;52.616;13.238;2024-01-16T01:53:21;2.87;;;1.60;;
6928;SDS011;3504;52.616;13.238;2024-01-16T01:58:22;6.07;;;1.50;;
6928;SDS011;3504;52.616;13.238;2024-01-16T02:03:23;2.40;;;1.70;;
6928;SDS011;3504;52.616;13.238;2024-01-16T02:08:26;4.83;;;1.70;;
6928;SDS011;3504;52.616;13.238;2024-01-16T02:13:27;2.90;;;1.57;;
6928;SDS011;3504;52.616;13.238;2024-01-16T02:18:28;4.20;;;1.83;;
6928;SDS011;3504;52.616;13.238;2024-01-16T02:23:29;2.20;;;1.43;;
6928;SDS011;3504;52.616;13.238;2024-01-16T02:28:31;1.83;;;1.50;;
6928;SDS011;3504;52.616;13.238;2024-01-16T02:33:31;2.43;;;1.70;;
6928;SDS011;3504;52.616;13.238;2024-01-16T02:38:32;2.43;;;1.50;;
6928;SDS011;3504;52.616;13.238;2024-01-16T02:43:33;3.20;;;1.80;;
6928;SDS011;3504;52.616;13.238;2024-01-16T02:48:33;3.33;;;1.80;;
6928;SDS011;3504;52.616;13.238;2024-01-16T02:53:35;2.27;;;1.90;;
6928;SDS011;3504;52.616;13.238;2024-01-16T02:58:36;5.23;;;2.17;;
6928;SDS011;3504;52.616;13.238;2024-01-16T03:03:37;7.43;;;2.63;;
6928;SDS011;3504;52.616;13.238;2024-01-16T03:08:37;9.47;;;4.20;;
6928;SDS011;3504;52.616;13.238;2024-01-16T03:13:38;6.57;;;3.43;;
6928;SDS011;3504;52.616;13.238;2024-01-16T03:18:39;4.90;;;3.77;;
6928;SDS011;3504;52.616;13.238;2024-01-16T03:23:39;7.57;;;3.07;;
6928;SDS011;3504;52.616;13.238;2024-01-16T03:28:40;5.03;;;3.20;;
6928;SDS011;3504;52.616;13.238;2024-01-16T03:33:41;7.33;;;4.30;;
6928;SDS011;3504;52.616;13.238;2024-01-16T03:38:43;5.00;;;3.87;;
6928;SDS011;3504;52.616;13.238;2024-01-16T03:43:43;3.13;;;2.53;;
6928;SDS011;3504;52.616;13.238;2024-01-16T03:48:44;2.80;;;2.00;;
6928;SDS011;3504;52.616;13.238;2024-01-16T03:53:53;3.17;;;1.97;;
6928;SDS011;3504;52.616;13.238;2024-01-16T03:58:54;3.20;;;1.90;;
6928;SDS011;3504;52.616;13.238;2024-01-16T04:03:55;2.97;;;2.07;;
6928;SDS011;3504;52.616;13.238;2024-01-16T04:08:55;5.17;;;2.40;;
6928;SDS011;3504;52.616;13.238;2024-01-16T04:13:56;4.23;;;2.73;;
6928;SDS011;3504;52.616;13.238;2024-01-16T04:18:56;5.60;;;2.77;;
6928;SDS011;3504;52.616;13.238;2024-01-16T04:23:57;5.87;;;3.07;;
6928;SDS011;3504;52.616;13.238;2024-01-16T04:28:57;4.30;;;2.33;;
6928;SDS011;3504;52.616;13.238;2024-01-16T04:33:58;5.60;;;2.73;;
6928;SDS011;3504;52.616;13.238;2024-01-16T04:38:59;5.50;;;2.60;;
6928;SDS011;3504;52.616;13.238;2024-01-16T04:43:59;5.33;;;3.43;;
6928;SDS011;3504;52.616;13.238;2024-01-16T04:49:00;3.60;;;2.37;;
6928;SDS011;3504;52.616;13.238;2024-01-16T04:54:01;2.77;;;2.10;;
6928;SDS011;3504;52.616;13.238;2024-01-16T04:59:01;5.03;;;2.67;;
6928;SDS011;3504;52.616;13.238;2024-01-16T05:04:02;5.50;;;2.93;;
6928;SDS011;3504;52.616;13.238;2024-01-16T05:09:03;5.27;;;2.70;;
6928;SDS011;3504;52.616;13.238;2024-01-16T05:14:04;4.83;;;2.67;;
6928;SDS011;3504;52.616;13.238;2024-01-16T05:19:04;5.73;;;3.13;;
6928;SDS011;3504;52.616;13.238;2024-01-16T05:24:05;5.17;;;3.10;;
6928;SDS011;3504;52.616;13.238;2024-01-16T05:29:05;4.53;;;3.30;;
6928;SDS011;3504;52.616;13.238;2024-01-16T05:34:06;5.90;;;3.77;;
6928;SDS011;3504;52.616;13.238;2024-01-16T05:39:07;5.20;;;3.37;;
6928;SDS011;3504;52.616;13.238;2024-01-16T05:44:08;5.77;;;4.03;;
6928;SDS011;3504;52.616;13.238;2024-01-16T05:49:09;8.10;;;4.67;;
6928;SDS011;3504;52.616;13.238;2024-01-16T05:54:10;8.40;;;4.50;;
6928;SDS011;3504;52.616;13.238;2024-01-16T05:59:10;9.03;;;4.23;;
6928;SDS011;3504;52.616;13.238;2024-01-16T06:04:11;8.17;;;3.87;;
6928;SDS011;3504;52.616;13.238;2024-01-16T06:09:12;7.60;;;4.17;;
6928;SDS011;3504;52.616;13.238;2024-01-16T06:14:14;8.93;;;4.10;;
6928;SDS011;3504;52.616;13.238;2024-01-16T06:19:19;6.37;;;3.80;;
6928;SDS011;3504;52.616;13.238;2024-01-16T06:24:21;6.57;;;3.93;;
6928;SDS011;3504;52.616;13.238;2024-01-16T06:29:21;5.80;;;3.40;;
6928;SDS011;3504;52.616;13.238;2024-01-16T06:34:22;7.73;;;4.50;;
6928;SDS011;3504;52.616;13.238;2024-01-16T06:39:22;5.50;;;3.90;;
6928;SDS011;3504;52.616;13.238;2024-01-16T06:44:23;5.97;;;3.80;;
6928;SDS011;3504;52.616;13.238;2024-01-16T06:49:23;5.20;;;4.40;;
6928;SDS011;3504;52.616;13.238;2024-01-16T06:54:24;5.13;;;3.33;;
6928;SDS011;3504;52.616;13.238;2024-01-16T06:59:24;5.33;;;3.27;;
6928;SDS011;3504;52.616;13.238;2024-01-16T07:04:25;9.97;;;4.30;;
6928;SDS011;3504;52.616;13.238;2024-01-16T07:09:26;7.13;;;4.00;;
6928;SDS011;3504;52.616;13.238;2024-01-16T07:14:27;6.73;;;3.93;;
6928;SDS011;3504;52.616;13.238;2024-01-16T07:19:28;9.17;;;3.90;;
6928;SDS011;3504;52.616;13.238;2024-01-16T07:24:28;7.63;;;4.13;;
6928;SDS011;3504;52.616;13.238;2024-01-16T07:29:29;7.60;;;3.80;;
6928;SDS011;3504;52.616;13.238;2024-01-16T07:34:29;6.67;;;4.57;;
6928;SDS011;3504;52.616;13.238;2024-01-16T07:39:30;9.17;;;4.20;;
6928;SDS011;3504;52.616;13.238;2024-01-16T07:44:30;6.67;;;4.17;;
6928;SDS011;3504;52.616;13.238;2024-01-16T07:49:31;6.03;;;4.93;;
6928;SDS011;3504;52.616;13.238;2024-01-16T07:54:34;6.17;;;4.00;;
6928;SDS011;3504;52.616;13.238;2024-01-16T07:59:35;6.73;;;4.67;;
6928;SDS011;3504;52.616;13.238;2024-01-16T08:04:35;15.87;;;7.53;;
6928;SDS011;3504;52.616;13.238;2024-01-16T08:09:36;10.33;;;5.73;;
6928;SDS011;3504;52.616;13.238;2024-01-16T08:14:36;7.77;;;5.47;;
6928;SDS011;3504;52.616;13.238;2024-01-16T08:19:37;9.27;;;5.00;;
6928;SDS011;3504;52.616;13.238;2024-01-16T08:24:38;6.80;;;4.97;;
6928;SDS011;3504;52.616;13.238;2024-01-16T08:29:39;7.43;;;4.80;;
6928;SDS011;3504;52.616;13.238;2024-01-16T08:34:39;7.43;;;4.50;;
6928;SDS011;3504;52.616;13.238;2024-01-16T08:39:40;8.67;;;4.23;;
6928;SDS011;3504;52.616;13.238;2024-01-16T08:44:40;8.90;;;5.30;;
6928;SDS011;3504;52.616;13.238;2024-01-16T08:49:41;6.60;;;5.50;;
6928;SDS011;3504;52.616;13.238;2024-01-16T08:54:41;8.37;;;5.53;;
6928;SDS011;3504;52.616;13.238;2024-01-16T08:59:42;8.00;;;6.03;;
6928;SDS011;3504;52.616;13.238;2024-01-16T09:04:42;7.97;;;5.30;;
6928;SDS011;3504;52.616;13.238;2024-01-16T09:09:43;9.43;;;5.20;;
6928;SDS011;3504;52.616;13.238;2024-01-16T09:14:43;9.53;;;5.43;;
6928;SDS011;3504;52.616;13.238;2024-01-16T09:19:44;10.80;;;6.03;;
6928;SDS011;3504;52.616;13.238;2024-01-16T09:24:44;8.97;;;5.57;;
6928;SDS011;3504;52.616;13.238;2024-01-16T09:29:45;9.87;;;6.07;;
6928;SDS011;3504;52.616;13.238;2024-01-16T09:34:45;11.40;;;6.43;;
6928;SDS011;3504;52.616;13.238;2024-01-16T09:39:46;7.97;;;5.90;;
6928;SDS011;3504;52.616;13.238;2024-01-16T09:44:47;11.27;;;6.90;;
6928;SDS011;3504;52.616;13.238;2024-01-16T09:49:49;10.20;;;6.33;;
6928;SDS011;3504;52.616;13.238;2024-01-16T09:54:50;10.97;;;6.70;;
6928;SDS011;3504;52.616;13.238;2024-01-16T09:59:51;8.03;;;6.27;;
6928;SDS011;3504;52.616;13.238;2024-01-16T10:04:52;9.30;;;6.33;;
6928;SDS011;3504;52.616;13.238;2024-01-16T10:09:55;12.27;;;6.93;;
6928;SDS011;3504;52.616;13.238;2024-01-16T10:14:58;7.77;;;6.00;;
6928;SDS011;3504;52.616;13.238;2024-01-16T10:19:58;11.50;;;5.93;;
6928;SDS011;3504;52.616;13.238;2024-01-16T10:25:10;10.73;;;6.40;;
6928;SDS011;3504;52.616;13.238;2024-01-16T10:30:12;9.50;;;5.43;;
6928;SDS011;3504;52.616;13.238;2024-01-16T10:35:13;9.70;;;5.43;;
6928;SDS011;3504;52.616;13.238;2024-01-16T10:40:15;6.67;;;5.13;;
6928;SDS011;3504;52.616;13.238;2024-01-16T10:45:19;9.27;;;5.10;;
6928;SDS011;3504;52.616;13.238;2024-01-16T10:50:20;6.63;;;4.90;;
6928;SDS011;3504;52.616;13.238;2024-01-16T10:55:23;7.87;;;4.13;;
6928;SDS011;3504;52.616;13.238;2024-01-16T11:00:25;10.67;;;4.60;;
6928;SDS011;3504;52.616;13.238;2024-01-16T11:05:27;7.13;;;4.70;;
6928;SDS011;3504;52.616;13.238;2024-01-16T11:10:31;7.47;;;4.73;;
6928;SDS011;3504;52.616;13.238;2024-01-16T11:15:34;7.70;;;4.43;;
6928;SDS011;3504;52.616;13.238;2024-01-16T11:20:37;5.97;;;4.57;;
6928;SDS011;3504;52.616;13.238;2024-01-16T11:25:42;11.10;;;4.23;;
6928;SDS011;3504;52.616;13.238;2024-01-16T11:30:43;6.30;;;4.07;;
6928;SDS011;3504;52.616;13.238;2024-01-16T11:35:44;7.13;;;3.40;;
6928;SDS011;3504;52.616;13.238;2024-01-16T11:40:44;7.93;;;4.10;;
6928;SDS011;3504;52.616;13.238;2024-01-16T11:50:50;11.83;;;5.03;;
6928;SDS011;3504;52.616;13.238;2024-01-16T12:01:35;8.90;;;4.70;;
6928;SDS011;3504;52.616;13.238;2024-01-16T12:06:36;15.83;;;5.33;;
6928;SDS011;3504;52.616;13.238;2024-01-16T12:11:40;12.17;;;5.00;;
6928;SDS011;3504;52.616;13.238;2024-01-16T12:16:43;10.27;;;5.87;;
6928;SDS011;3504;52.616;13.238;2024-01-16T12:21:44;11.97;;;6.27;;
6928;SDS011;3504;52.616;13.238;2024-01-16T12:26:45;15.47;;;6.10;;
6928;SDS011;3504;52.616;13.238;2024-01-16T12:31:46;13.37;;;6.63;;
6928;SDS011;3504;52.616;13.238;2024-01-16T12:36:46;12.17;;;6.60;;
6928;SDS011;3504;52.616;13.238;2024-01-16T12:41:47;11.30;;;6.00;;
6928;SDS011;3504;52.616;13.238;2024-01-16T12:46:54;12.77;;;6.00;;
6928;SDS011;3504;52.616;13.238;2024-01-16T12:57:21;13.30;;;5.67;;
6928;SDS011;3504;52.616;13.238;2024-01-16T13:02:22;14.37;;;5.53;;
6928;SDS011;3504;52.616;13.238;2024-01-16T13:07:25;8.90;;;5.00;;
6928;SDS011;3504;52.616;13.238;2024-01-16T13:12:27;10.90;;;5.63;;
6928;SDS011;3504;52.616;13.238;2024-01-16T13:17:33;10.53;;;4.93;;
6928;SDS011;3504;52.616;13.238;2024-01-16T13:22:35;15.40;;;5.70;;
6928;SDS011;3504;52.616;13.238;2024-01-16T13:27:35;8.40;;;5.23;;
6928;SDS011;3504;52.616;13.238;2024-01-16T13:32:36;11.10;;;5.23;;
6928;SDS011;3504;52.616;13.238;2024-01-16T13:37:37;10.50;;;4.57;;
6928;SDS011;3504;52.616;13.238;2024-01-16T13:42:38;9.33;;;4.33;;
6928;SDS011;3504;52.616;13.238;2024-01-16T13:47:39;11.23;;;4.87;;
6928;SDS011;3504;52.616;13.238;2024-01-16T13:52:40;9.30;;;4.67;;
6928;SDS011;3504;52.616;13.238;2024-01-16T13:57:41;9.40;;;4.73;;
6928;SDS011;3504;52.616;13.238;2024-01-16T14:02:42;9.20;;;5.07;;
6928;SDS011;3504;52.616;13.238;2024-01-16T14:07:44;11.17;;;4.23;;
6928;SDS011;3504;52.616;13.238;2024-01-16T14:12:50;11.77;;;4.63;;
6928;SDS011;3504;52.616;13.238;2024-01-16T14:17:52;8.40;;;4.63;;
6928;SDS011;3504;52.616;13.238;2024-01-16T14:22:55;14.00;;;5.27;;
6928;SDS011;3504;52.616;13.238;2024-01-16T14:27:57;12.40;;;5.47;;
6928;SDS011;3504;52.616;13.238;2024-01-16T14:32:59;12.43;;;5.30;;
6928;SDS011;3504;52.616;13.238;2024-01-16T14:37:59;14.70;;;5.87;;
6928;SDS011;3504;52.616;13.238;2024-01-16T14:43:00;9.90;;;4.67;;
6928;SDS011;3504;52.616;13.238;2024-01-16T14:48:04;17.60;;;5.73;;
6928;SDS011;3504;52.616;13.238;2024-01-16T14:53:05;12.10;;;5.73;;
6928;SDS011;3504;52.616;13.238;2024-01-16T14:58:06;13.13;;;5.10;;
6928;SDS011;3504;52.616;13.238;2024-01-16T15:03:08;13.63;;;5.80;;
6928;SDS011;3504;52.616;13.238;2024-01-16T15:08:09;14.57;;;5.07;;
6928;SDS011;3504;52.616;13.238;2024-01-16T15:13:13;10.20;;;5.17;;
6928;SDS011;3504;52.616;13.238;2024-01-16T15:18:13;16.60;;;6.50;;
6928;SDS011;3504;52.616;13.238;2024-01-16T15:23:14;11.17;;;6.30;;
6928;SDS011;3504;52.616;13.238;2024-01-16T15:28:14;14.50;;;6.60;;
6928;SDS011;3504;52.616;13.238;2024-01-16T15:33:15;12.63;;;6.80;;
6928;SDS011;3504;52.616;13.238;2024-01-16T15:38:15;13.73;;;6.73;;
6928;SDS011;3504;52.616;13.238;2024-01-16T15:43:16;13.37;;;7.03;;
6928;SDS011;3504;52.616;13.238;2024-01-16T15:48:16;33.10;;;17.43;;
6928;SDS011;3504;52.616;13.238;2024-01-16T15:53:17;13.87;;;7.83;;
6928;SDS011;3504;52.616;13.238;2024-01-16T15:58:17;16.27;;;7.77;;
6928;SDS011;3504;52.616;13.238;2024-01-16T16:03:18;14.17;;;8.07;;
6928;SDS011;3504;52.616;13.238;2024-01-16T16:08:21;17.63;;;9.97;;
6928;SDS011;3504;52.616;13.238;2024-01-16T16:13:21;17.40;;;8.50;;
6928;SDS011;3504;52.616;13.238;2024-01-16T16:18:22;15.63;;;8.80;;
6928;SDS011;3504;52.616;13.238;2024-01-16T16:23:23;17.27;;;8.63;;
6928;SDS011;3504;52.616;13.238;2024-01-16T16:28:23;16.83;;;8.60;;
6928;SDS011;3504;52.616;13.238;2024-01-16T16:33:24;16.83;;;8.93;;
6928;SDS011;3504;52.616;13.238;2024-01-16T16:38:24;17.23;;;9.90;;
6928;SDS011;3504;52.616;13.238;2024-01-16T16:43:25;12.53;;;8.87;;
6928;SDS011;3504;52.616;13.238;2024-01-16T16:48:25;21.77;;;11.23;;
6928;SDS011;3504;52.616;13.238;2024-01-16T16:53:26;16.60;;;9.57;;
6928;SDS011;3504;52.616;13.238;2024-01-16T16:58:26;19.43;;;10.90;;
6928;SDS011;3504;52.616;13.238;2024-01-16T17:03:27;15.57;;;9.23;;
6928;SDS011;3504;52.616;13.238;2024-01-16T17:08:27;19.30;;;9.33;;
6928;SDS011;3504;52.616;13.238;2024-01-16T17:13:32;18.77;;;10.87;;
6928;SDS011;3504;52.616;13.238;2024-01-16T17:18:33;16.57;;;10.10;;
6928;SDS011;3504;52.616;13.238;2024-01-16T17:23:34;17.90;;;10.13;;
6928;SDS011;3504;52.616;13.238;2024-01-16T17:28:35;19.47;;;10.43;;
6928;SDS011;3504;52.616;13.238;2024-01-16T17:33:36;18.67;;;10.20;;
6928;SDS011;3504;52.616;13.238;2024-01-16T17:38:37;18.97;;;12.13;;
6928;SDS011;3504;52.616;13.238;2024-01-16T17:43:37;22.63;;;11.10;;
6928;SDS011;3504;52.616;13.238;2024-01-16T17:48:39;20.43;;;11.20;;
6928;SDS011;3504;52.616;13.238;2024-01-16T17:53:40;21.67;;;11.17;;
6928;SDS011;3504;52.616;13.238;2024-01-16T17:58:43;22.27;;;11.10;;
6928;SDS011;3504;52.616;13.238;2024-01-16T18:03:43;16.83;;;10.40;;
6928;SDS011;3504;52.616;13.238;2024-01-16T18:08:46;25.77;;;12.67;;
6928;SDS011;3504;52.616;13.238;2024-01-16T18:13:48;17.53;;;9.97;;
6928;SDS011;3504;52.616;13.238;2024-01-16T18:18:49;16.23;;;9.23;;
6928;SDS011;3504;52.616;13.238;2024-01-16T18:23:51;18.43;;;9.70;;
6928;SDS011;3504;52.616;13.238;2024-01-16T18:28:52;13.10;;;9.07;;
6928;SDS011;3504;52.616;13.238;2024-01-16T18:33:54;17.47;;;9.37;;
6928;SDS011;3504;52.616;13.238;2024-01-16T18:38:54;15.73;;;8.67;;
6928;SDS011;3504;52.616;13.238;2024-01-16T18:43:55;17.03;;;9.07;;
6928;SDS011;3504;52.616;13.238;2024-01-16T18:48:57;13.97;;;8.17;;
6928;SDS011;3504;52.616;13.238;2024-01-16T18:53:58;15.83;;;9.67;;
6928;SDS011;3504;52.616;13.238;2024-01-16T18:58:59;18.30;;;9.80;;
6928;SDS011;3504;52.616;13.238;2024-01-16T19:04:00;20.57;;;10.90;;
6928;SDS011;3504;52.616;13.238;2024-01-16T19:09:00;20.80;;;10.87;;
6928;SDS011;3504;52.616;13.238;2024-01-16T19:14:01;21.47;;;13.23;;
6928;SDS011;3504;52.616;13.238;2024-01-16T19:19:02;27.57;;;14.70;;
6928;SDS011;3504;52.616;13.238;2024-01-16T19:24:03;22.07;;;12.90;;
6928;SDS011;3504;52.616;13.238;2024-01-16T19:29:04;25.53;;;13.30;;
6928;SDS011;3504;52.616;13.238;2024-01-16T19:34:08;20.90;;;12.00;;
6928;SDS011;3504;52.616;13.238;2024-01-16T19:39:09;21.73;;;12.60;;
6928;SDS011;3504;52.616;13.238;2024-01-16T19:44:16;27.23;;;14.07;;
6928;SDS011;3504;52.616;13.238;2024-01-16T19:49:16;24.73;;;13.50;;
6928;SDS011;3504;52.616;13.238;2024-01-16T19:54:17;23.90;;;14.20;;
6928;SDS011;3504;52.616;13.238;2024-01-16T19:59:17;27.70;;;14.13;;
6928;SDS011;3504;52.616;13.238;2024-01-16T20:04:18;21.77;;;13.63;;
6928;SDS011;3504;52.616;13.238;2024-01-16T20:09:19;27.13;;;13.63;;
6928;SDS011;3504;52.616;13.238;2024-01-16T20:14:19;19.13;;;12.70;;
6928;SDS011;3504;52.616;13.238;2024-01-16T20:19:20;24.67;;;13.00;;
6928;SDS011;3504;52.616;13.238;2024-01-16T20:24:20;21.87;;;11.80;;
6928;SDS011;3504;52.616;13.238;2024-01-16T20:29:21;17.27;;;10.00;;
6928;SDS011;3504;52.616;13.238;2024-01-16T20:34:22;19.33;;;11.50;;
6928;SDS011;3504;52.616;13.238;2024-01-16T20:39:22;20.80;;;10.63;;
6928;SDS011;3504;52.616;13.238;2024-01-16T20:44:23;14.50;;;10.03;;
6928;SDS011;3504;52.616;13.238;2024-01-16T20:49:27;16.43;;;10.60;;
6928;SDS011;3504;52.616;13.238;2024-01-16T20:54:28;18.53;;;8.67;;
6928;SDS011;3504;52.616;13.238;2024-01-16T20:59:29;18.30;;;10.07;;
6928;SDS011;3504;52.616;13.238;2024-01-16T21:04:29;15.60;;;9.23;;
6928;SDS011;3504;52.616;13.238;2024-01-16T21:09:30;18.53;;;8.60;;
6928;SDS011;3504;52.616;13.238;2024-01-16T21:14:31;12.80;;;8.93;;
6928;SDS011;3504;52.616;13.238;2024-01-16T21:19:31;17.93;;;8.23;;
6928;SDS011;3504;52.616;13.238;2024-01-16T21:24:35;13.77;;;8.50;;
6928;SDS011;3504;52.616;13.238;2024-01-16T21:29:36;17.50;;;7.47;;
6928;SDS011;3504;52.616;13.238;2024-01-16T21:34:38;14.53;;;8.63;;
6928;SDS011;3504;52.616;13.238;2024-01-16T21:39:40;13.43;;;7.40;;
6928;SDS011;3504;52.616;13.238;2024-01-16T21:44:40;13.80;;;7.10;;
6928;SDS011;3504;52.616;13.238;2024-01-16T21:49:41;12.87;;;7.03;;
6928;SDS011;3504;52.616;13.238;2024-01-16T21:54:41;11.10;;;6.80;;
6928;SDS011;3504;52.616;13.238;2024-01-16T21:59:42;12.20;;;7.10;;
6928;SDS011;3504;52.616;13.238;2024-01-16T22:04:42;14.50;;;7.57;;
6928;SDS011;3504;52.616;13.238;2024-01-16T22:09:43;10.33;;;7.10;;
6928;SDS011;3504;52.616;13.238;2024-01-16T22:14:43;10.17;;;6.00;;
6928;SDS011;3504;52.616;13.238;2024-01-16T22:19:44;10.27;;;6.43;;
6928;SDS011;3504;52.616;13.238;2024-01-16T22:24:44;14.07;;;5.83;;
6928;SDS011;3504;52.616;13.238;2024-01-16T22:29:45;11.70;;;6.47;;
6928;SDS011;3504;52.616;13.238;2024-01-16T22:34:45;15.07;;;6.50;;
6928;SDS011;3504;52.616;13.238;2024-01-16T22:39:48;10.77;;;6.20;;
6928;SDS011;3504;52.616;13.238;2024-01-16T22:44:49;12.30;;;6.57;;
6928;SDS011;3504;52.616;13.238;2024-01-16T22:49:50;13.97;;;6.33;;
6928;SDS011;3504;52.616;13.238;2024-01-16T22:54:51;11.87;;;6.57;;
6928;SDS011;3504;52.616;13.238;2024-01-16T22:59:51;11.60;;;6.10;;
6928;SDS011;3504;52.616;13.238;2024-01-16T23:04:52;10.73;;;6.17;;
6928;SDS011;3504;52.616;13.238;2024-01-16T23:09:53;9.43;;;5.93;;
6928;SDS011;3504;52.616;13.238;2024-01-16T23:14:55;11.77;;;5.97;;
6928;SDS011;3504;52.616;13.238;2024-01-16T23:19:57;11.70;;;6.20;;
6928;SDS011;3504;52.616;13.238;2024-01-16T23:24:57;13.90;;;6.50;;
6928;SDS011;3504;52.616;13.238;2024-01-16T23:29:58;12.07;;;8.10;;
6928;SDS011;3504;52.616;13.238;2024-01-16T23:34:59;13.07;;;8.00;;
6928;SDS011;3504;52.616;13.238;2024-01-16T23:39:59;15.57;;;8.57;;
6928;SDS011;3504;52.616;13.238;2024-01-16T23:45:01;12.70;;;8.03;;
6928;SDS011;3504;52.616;13.238;2024-01-16T23:50:04;14.17;;;7.63;;
6928;SDS011;3504;52.616;13.238;2024-01-16T23:55:07;13.40;;;8.17;;
